Time;durP1;ratioP1;P1;durP2;ratioP2;P2;SDS_P1;SDS_P2;PMS_P1;PMS_P2;Temp;Humidity;BMP_temperature;BMP_pressure;BME280_temperature;BME280_humidity;BME280_pressure;Samples;Min_cycle;Max_cycle;Signal;HPM_P1;HPM_P2
2024/02/28 00:00:11;;;;;;;46.80;31.47;;;6.10;99.90;;;;;;5019184;28;20194;-52
2024/02/28 00:02:37;;;;;;;49.42;30.70;;;6.10;99.90;;;;;;5018722;28;20194;-54
2024/02/28 00:05:02;;;;;;;46.73;31.23;;;6.10;99.90;;;;;;5019282;28;20225;-51
2024/02/28 00:07:28;;;;;;;54.60;31.90;;;6.10;99.90;;;;;;5019198;28;20504;-51
2024/02/28 00:09:57;;;;;;;44.13;31.07;;;6.10;99.90;;;;;;5017697;28;20191;-51
2024/02/28 00:12:25;;;;;;;44.47;29.93;;;6.10;99.90;;;;;;5018946;28;20203;-51
2024/02/28 00:14:51;;;;;;;48.67;31.13;;;6.10;99.90;;;;;;5018409;28;20503;-49
2024/02/28 00:17:16;;;;;;;41.53;30.20;;;6.20;99.90;;;;;;5019759;28;20255;-49
2024/02/28 00:19:42;;;;;;;47.03;31.63;;;6.10;99.90;;;;;;5023051;28;20480;-47
2024/02/28 00:22:08;;;;;;;43.30;31.13;;;6.10;99.90;;;;;;5022764;28;20240;-49
2024/02/28 00:24:34;;;;;;;46.35;30.25;;;6.10;99.90;;;;;;5022463;28;20179;-51
2024/02/28 00:27:00;;;;;;;43.27;29.70;;;6.10;99.90;;;;;;5021912;28;20531;-46
2024/02/28 00:29:26;;;;;;;44.97;31.25;;;6.10;99.90;;;;;;5022181;28;20257;-52
2024/02/28 00:31:52;;;;;;;37.57;29.47;;;6.10;99.90;;;;;;5022406;28;20641;-47
2024/02/28 00:34:17;;;;;;;41.77;30.60;;;6.10;99.90;;;;;;5022513;28;20229;-46
2024/02/28 00:36:43;;;;;;;40.67;30.07;;;6.10;99.90;;;;;;5022353;28;20202;-48
2024/02/28 00:39:09;;;;;;;38.00;31.33;;;6.10;99.90;;;;;;5021432;28;20236;-48
2024/02/28 00:41:35;;;;;;;46.57;31.73;;;6.10;99.90;;;;;;5020635;28;20190;-48
2024/02/28 00:44:02;;;;;;;42.40;29.40;;;6.10;99.90;;;;;;5022136;28;20431;-48
2024/02/28 00:46:28;;;;;;;39.87;30.40;;;6.10;99.90;;;;;;5022376;28;20183;-52
2024/02/28 00:48:54;;;;;;;37.27;29.43;;;6.10;99.90;;;;;;5022157;28;20447;-46
2024/02/28 00:51:19;;;;;;;37.60;31.37;;;6.10;99.90;;;;;;5022488;28;20190;-50
2024/02/28 00:53:45;;;;;;;37.90;29.50;;;6.10;99.90;;;;;;5017908;28;20194;-45
2024/02/28 00:56:10;;;;;;;38.93;29.80;;;6.10;99.90;;;;;;5021285;28;20661;-48
2024/02/28 00:58:36;;;;;;;38.03;28.80;;;6.10;99.90;;;;;;5022129;28;20217;-50
2024/02/28 01:01:02;;;;;;;41.13;30.70;;;6.20;99.90;;;;;;5021887;28;20563;-46
2024/02/28 01:03:28;;;;;;;45.30;31.13;;;6.10;99.90;;;;;;5020429;28;20515;-45
2024/02/28 01:05:53;;;;;;;33.67;29.07;;;6.20;99.90;;;;;;5020830;28;20516;-47
2024/02/28 01:08:19;;;;;;;32.97;28.07;;;6.20;99.90;;;;;;5021781;28;20605;-48
2024/02/28 01:10:45;;;;;;;38.53;28.70;;;6.20;99.90;;;;;;5021168;28;20285;-48
2024/02/28 01:13:11;;;;;;;35.13;28.23;;;6.20;99.90;;;;;;5021546;28;20273;-50
2024/02/28 01:15:39;;;;;;;35.37;28.87;;;6.10;99.90;;;;;;5019999;28;20183;-46
2024/02/28 01:18:04;;;;;;;31.92;27.25;;;6.10;99.90;;;;;;5020425;28;20469;-48
2024/02/28 01:20:30;;;;;;;34.47;27.43;;;6.10;99.90;;;;;;5021464;28;20225;-48
2024/02/28 01:22:56;;;;;;;35.63;28.40;;;6.10;99.90;;;;;;5021919;28;20310;-49
2024/02/28 01:25:21;;;;;;;35.73;28.53;;;6.10;99.90;;;;;;5020975;28;20193;-49
2024/02/28 01:27:47;;;;;;;34.10;27.27;;;6.10;99.90;;;;;;5020752;28;20731;-50
2024/02/28 01:30:12;;;;;;;35.60;30.13;;;6.10;99.90;;;;;;5020989;28;20474;-55
2024/02/28 01:32:38;;;;;;;33.17;26.80;;;6.10;99.90;;;;;;5020264;28;20186;-55
2024/02/28 01:35:04;;;;;;;33.90;27.63;;;6.10;99.90;;;;;;5020736;28;20186;-57
2024/02/28 01:37:29;;;;;;;39.13;29.03;;;6.10;99.90;;;;;;5021340;28;20187;-54
2024/02/28 01:39:55;;;;;;;37.80;28.13;;;6.10;99.90;;;;;;5020630;28;20198;-55
2024/02/28 01:42:21;;;;;;;33.37;28.73;;;6.10;99.90;;;;;;5020889;28;20187;-53
2024/02/28 01:44:51;;;;;;;34.10;27.90;;;6.10;99.90;;;;;;5021001;28;20332;-55
2024/02/28 01:47:17;;;;;;;36.20;28.00;;;6.10;99.90;;;;;;5020651;28;20265;-56
2024/02/28 01:49:45;;;;;;;30.83;26.20;;;6.10;99.90;;;;;;5020985;28;20425;-56
2024/02/28 01:52:12;;;;;;;33.40;28.07;;;6.20;99.90;;;;;;5021077;28;20856;-54
2024/02/28 01:54:38;;;;;;;30.07;26.30;;;6.10;99.90;;;;;;5020699;28;20428;-56
2024/02/28 01:57:06;;;;;;;41.30;28.07;;;6.20;99.90;;;;;;5021224;28;20778;-57
2024/02/28 01:59:33;;;;;;;34.63;27.50;;;6.20;99.90;;;;;;5020250;28;20457;-50
2024/02/28 02:01:59;;;;;;;37.50;26.70;;;6.20;99.90;;;;;;5020467;28;20655;-57
2024/02/28 02:04:24;;;;;;;34.20;27.30;;;6.20;99.90;;;;;;5019839;28;20186;-57
2024/02/28 02:06:53;;;;;;;32.30;26.73;;;6.20;99.90;;;;;;5020156;28;20189;-51
2024/02/28 02:09:19;;;;;;;35.63;26.35;;;6.20;99.90;;;;;;5020748;28;20174;-56
2024/02/28 02:11:45;;;;;;;33.87;27.20;;;6.20;99.90;;;;;;5019833;28;20675;-56
2024/02/28 02:14:11;;;;;;;35.50;27.30;;;6.20;99.90;;;;;;5020700;28;20431;-53
2024/02/28 02:16:36;;;;;;;34.37;27.37;;;6.20;99.90;;;;;;5019800;28;20303;-55
2024/02/28 02:19:03;;;;;;;32.73;25.00;;;6.20;99.90;;;;;;5020390;28;20263;-57
2024/02/28 02:21:37;;;;;;;34.75;27.20;;;6.20;99.90;;;;;;5020149;28;20503;-54
2024/02/28 02:24:03;;;;;;;33.67;26.90;;;6.20;99.90;;;;;;5020624;28;20464;-53
2024/02/28 02:26:28;;;;;;;37.90;27.03;;;6.10;99.90;;;;;;5019935;28;20637;-58
2024/02/28 02:28:54;;;;;;;38.60;27.60;;;6.10;99.90;;;;;;5020055;28;20567;-53
2024/02/28 02:31:20;;;;;;;34.93;26.20;;;6.20;99.90;;;;;;5020379;28;20586;-52
2024/02/28 02:33:45;;;;;;;34.47;24.83;;;6.10;99.90;;;;;;5020041;28;20588;-56
2024/02/28 02:36:11;;;;;;;36.33;26.00;;;6.10;99.90;;;;;;5020421;28;20187;-55
2024/02/28 02:38:36;;;;;;;39.47;25.80;;;6.20;99.90;;;;;;5020409;28;20625;-55
2024/02/28 02:41:02;;;;;;;35.30;26.87;;;6.10;99.90;;;;;;5018751;28;20198;-53
2024/02/28 02:43:28;;;;;;;35.60;26.00;;;6.10;99.90;;;;;;5019132;28;20186;-53
2024/02/28 02:45:53;;;;;;;37.67;27.03;;;6.10;99.90;;;;;;5018987;28;20512;-56
2024/02/28 02:48:19;;;;;;;37.93;26.70;;;6.10;99.90;;;;;;5019616;28;20549;-55
2024/02/28 02:50:45;;;;;;;33.43;26.20;;;6.20;99.90;;;;;;5019864;28;20189;-56
2024/02/28 02:53:11;;;;;;;36.73;25.50;;;6.20;99.90;;;;;;5020364;28;20547;-61
2024/02/28 02:55:37;;;;;;;36.15;27.02;;;6.20;99.90;;;;;;5019991;28;20585;-57
2024/02/28 02:58:02;;;;;;;36.90;26.50;;;6.20;99.90;;;;;;5018971;28;20297;-54
2024/02/28 03:00:28;;;;;;;36.40;26.53;;;6.20;99.90;;;;;;5019479;28;20475;-54
2024/02/28 03:02:54;;;;;;;34.67;25.65;;;6.20;99.90;;;;;;5019200;28;20247;-56
2024/02/28 03:05:20;;;;;;;33.00;25.73;;;6.20;99.90;;;;;;5020197;28;21020;-62
2024/02/28 03:07:46;;;;;;;33.40;26.30;;;6.20;99.90;;;;;;5019718;28;20424;-56
2024/02/28 03:10:11;;;;;;;37.63;27.63;;;6.20;99.90;;;;;;5019602;28;20186;-53
2024/02/28 03:12:37;;;;;;;35.53;26.20;;;6.20;99.90;;;;;;5016579;28;20186;-53
2024/02/28 03:15:03;;;;;;;32.97;26.97;;;6.20;99.90;;;;;;5019358;28;20716;-54
2024/02/28 03:17:29;;;;;;;31.30;26.27;;;6.20;99.90;;;;;;5019802;28;20233;-52
2024/02/28 03:19:55;;;;;;;37.27;25.90;;;6.20;99.90;;;;;;5019125;28;20531;-57
2024/02/28 03:22:20;;;;;;;42.17;26.90;;;6.10;99.90;;;;;;5019433;28;20417;-53
2024/02/28 03:24:46;;;;;;;38.63;26.70;;;6.10;99.90;;;;;;5019515;28;20178;-56
2024/02/28 03:27:12;;;;;;;41.13;26.23;;;6.10;99.90;;;;;;5019242;28;20183;-52
2024/02/28 03:29:38;;;;;;;35.37;25.67;;;6.10;99.90;;;;;;5019519;28;20193;-55
2024/02/28 03:32:04;;;;;;;37.73;26.17;;;6.10;99.90;;;;;;5019465;28;20186;-57
2024/02/28 03:34:30;;;;;;;38.30;26.40;;;6.00;99.90;;;;;;5019539;28;20427;-54
2024/02/28 03:36:55;;;;;;;36.63;25.65;;;6.00;99.90;;;;;;5019487;28;20425;-55
2024/02/28 03:39:21;;;;;;;40.63;28.70;;;6.00;99.90;;;;;;5018995;28;20255;-54
2024/02/28 03:41:47;;;;;;;40.33;28.20;;;6.10;99.90;;;;;;5019497;28;20417;-56
2024/02/28 03:44:12;;;;;;;36.30;25.80;;;6.10;99.90;;;;;;5017018;28;20187;-57
2024/02/28 03:46:38;;;;;;;43.17;27.07;;;6.00;99.90;;;;;;5018679;28;20245;-46
2024/02/28 03:49:03;;;;;;;36.60;26.70;;;6.00;99.90;;;;;;5017269;28;20273;-48
2024/02/28 03:51:29;;;;;;;32.60;24.90;;;6.00;99.90;;;;;;5019828;28;20186;-48
2024/02/28 03:53:55;;;;;;;36.40;26.50;;;6.00;99.90;;;;;;5023104;28;20216;-50
2024/02/28 03:56:25;;;;;;;31.50;25.97;;;5.90;99.90;;;;;;5023088;28;20542;-51
2024/02/28 03:58:51;;;;;;;31.17;25.63;;;6.00;99.90;;;;;;5023020;28;20417;-46
2024/02/28 04:01:17;;;;;;;34.80;24.85;;;6.00;99.90;;;;;;5022912;28;20176;-47
2024/02/28 04:03:43;;;;;;;30.88;26.75;;;6.00;99.90;;;;;;5023163;28;20186;-46
2024/02/28 04:06:08;;;;;;;30.97;25.80;;;6.00;99.90;;;;;;5017574;28;20186;-50
2024/02/28 04:08:34;;;;;;;35.30;26.67;;;5.90;99.90;;;;;;5021877;28;20545;-50
2024/02/28 04:11:00;;;;;;;36.20;26.70;;;5.90;99.90;;;;;;5023086;28;20187;-50
2024/02/28 04:13:25;;;;;;;34.90;25.23;;;6.00;99.90;;;;;;5022108;28;20196;-51
2024/02/28 04:15:51;;;;;;;36.70;27.00;;;5.90;99.90;;;;;;5022721;28;20543;-43
2024/02/28 04:18:17;;;;;;;34.33;26.03;;;5.90;99.90;;;;;;5022778;28;20517;-48
2024/02/28 04:20:42;;;;;;;35.70;25.57;;;5.90;99.90;;;;;;5022365;28;20272;-48
2024/02/28 04:23:08;;;;;;;31.90;25.60;;;5.90;99.90;;;;;;5022811;28;20181;-46
2024/02/28 04:25:34;;;;;;;34.30;24.70;;;5.90;99.90;;;;;;5022819;28;20178;-48
2024/02/28 04:28:00;;;;;;;37.05;25.63;;;5.90;99.90;;;;;;5022465;28;20183;-49
2024/02/28 04:30:26;;;;;;;33.13;25.50;;;6.00;99.90;;;;;;5022734;28;20639;-45
2024/02/28 04:32:51;;;;;;;34.60;26.10;;;5.90;99.90;;;;;;5021735;28;20668;-50
2024/02/28 04:35:18;;;;;;;33.27;25.73;;;5.90;99.90;;;;;;5022556;28;20586;-49
2024/02/28 04:37:47;;;;;;;30.00;24.95;;;5.80;99.90;;;;;;5022530;28;20252;-45
2024/02/28 04:40:13;;;;;;;34.90;24.48;;;5.80;99.90;;;;;;5021870;28;20203;-47
2024/02/28 04:42:39;;;;;;;26.57;23.60;;;5.80;99.90;;;;;;5022246;28;20216;-55
2024/02/28 04:45:05;;;;;;;33.85;24.13;;;5.80;99.90;;;;;;5021247;28;20597;-56
2024/02/28 04:47:31;;;;;;;28.52;23.17;;;5.80;99.90;;;;;;5022284;28;20256;-52
2024/02/28 04:49:57;;;;;;;26.37;22.90;;;5.80;99.90;;;;;;5021364;28;20380;-58
2024/02/28 04:52:24;;;;;;;27.02;22.23;;;5.70;99.90;;;;;;5022354;28;20631;-56
2024/02/28 04:54:50;;;;;;;30.25;23.27;;;5.70;99.90;;;;;;5022094;28;20182;-51
2024/02/28 04:57:16;;;;;;;27.40;22.57;;;5.60;99.90;;;;;;5021985;28;20438;-51
2024/02/28 04:59:43;;;;;;;25.73;22.17;;;5.60;99.90;;;;;;5021987;28;20850;-56
2024/02/28 05:02:09;;;;;;;29.05;24.25;;;5.70;99.90;;;;;;5021269;28;20191;-51
2024/02/28 05:04:35;;;;;;;27.53;23.60;;;5.60;99.90;;;;;;5021166;28;20236;-54
2024/02/28 05:07:01;;;;;;;27.40;22.10;;;5.60;99.90;;;;;;5021469;28;20506;-56
2024/02/28 05:09:29;;;;;;;26.03;23.20;;;5.60;99.90;;;;;;5021549;28;20178;-56
2024/02/28 05:11:55;;;;;;;37.33;24.35;;;5.50;99.90;;;;;;5019173;28;20629;-53
2024/02/28 05:14:20;;;;;;;34.30;22.70;;;5.60;99.90;;;;;;5021371;28;20284;-53
2024/02/28 05:16:49;;;;;;;31.27;22.83;;;5.50;99.90;;;;;;5021509;28;20583;-55
2024/02/28 05:19:17;;;;;;;35.50;25.10;;;5.50;99.90;;;;;;5021552;28;20716;-52
2024/02/28 05:21:43;;;;;;;27.77;23.33;;;5.50;99.90;;;;;;5021501;28;20174;-54
2024/02/28 05:24:09;;;;;;;35.08;22.50;;;5.50;99.90;;;;;;5021687;28;20182;-51
2024/02/28 05:26:36;;;;;;;26.37;22.57;;;5.50;99.90;;;;;;5021206;28;20213;-49
2024/02/28 05:29:03;;;;;;;28.90;21.52;;;5.50;99.90;;;;;;5020827;28;20425;-54
2024/02/28 05:31:29;;;;;;;30.88;22.00;;;5.50;99.90;;;;;;5021119;28;20178;-49
2024/02/28 05:33:56;;;;;;;28.60;21.77;;;5.60;99.90;;;;;;5021331;28;20631;-45
2024/02/28 05:36:23;;;;;;;30.33;23.85;;;5.50;99.90;;;;;;5020583;28;20652;-49
2024/02/28 05:38:49;;;;;;;30.52;22.40;;;5.50;99.90;;;;;;5021351;28;20550;-51
2024/02/28 05:41:16;;;;;;;31.70;22.35;;;5.50;99.90;;;;;;5021191;28;20199;-47
2024/02/28 05:43:41;;;;;;;34.95;21.75;;;5.50;99.90;;;;;;5021270;28;20667;-49
2024/02/28 05:46:07;;;;;;;37.33;22.97;;;5.50;99.90;;;;;;5018998;28;20190;-49
2024/02/28 05:48:33;;;;;;;34.37;23.97;;;5.50;99.90;;;;;;5019677;28;20174;-52
2024/02/28 05:51:01;;;;;;;32.53;23.27;;;5.40;99.90;;;;;;5019582;28;20229;-51
2024/02/28 05:53:27;;;;;;;35.25;22.98;;;5.60;99.90;;;;;;5020155;28;20190;-50
2024/02/28 05:55:53;;;;;;;29.07;23.13;;;5.50;99.90;;;;;;5019594;28;20656;-49
2024/02/28 05:58:19;;;;;;;29.35;23.77;;;5.50;99.90;;;;;;5020730;28;20218;-52
2024/02/28 06:00:45;;;;;;;32.60;22.90;;;5.40;99.90;;;;;;5019794;28;20300;-46
2024/02/28 06:03:10;;;;;;;25.73;21.40;;;5.40;99.90;;;;;;5020372;28;20730;-48
2024/02/28 06:05:36;;;;;;;33.03;22.13;;;5.40;99.90;;;;;;5020932;28;20672;-49
2024/02/28 06:08:02;;;;;;;36.00;23.87;;;5.40;99.90;;;;;;5019860;28;20182;-46
2024/02/28 06:10:28;;;;;;;28.63;23.23;;;5.40;99.90;;;;;;5020836;28;20657;-46
2024/02/28 06:12:54;;;;;;;34.95;22.75;;;5.40;99.90;;;;;;5019989;28;20937;-53
2024/02/28 06:15:19;;;;;;;29.60;23.67;;;5.40;99.90;;;;;;5019142;28;20603;-49
2024/02/28 06:17:45;;;;;;;37.10;25.33;;;5.40;99.90;;;;;;5018808;28;20253;-48
2024/02/28 06:20:11;;;;;;;31.37;23.10;;;5.40;99.90;;;;;;5013230;28;20527;-47
2024/02/28 06:22:36;;;;;;;24.93;21.80;;;5.40;99.90;;;;;;5019718;28;20272;-50
2024/02/28 06:25:02;;;;;;;36.40;23.80;;;5.40;99.90;;;;;;5019489;28;20578;-46
2024/02/28 06:27:28;;;;;;;34.63;22.10;;;5.40;99.90;;;;;;5020444;28;20191;-49
2024/02/28 06:29:53;;;;;;;30.23;22.57;;;5.40;99.90;;;;;;5020334;28;20644;-48
2024/02/28 06:32:19;;;;;;;29.87;22.77;;;5.40;99.90;;;;;;5020289;28;20189;-50
2024/02/28 06:34:44;;;;;;;30.50;22.20;;;5.50;99.90;;;;;;5020216;28;20197;-49
2024/02/28 06:37:10;;;;;;;27.43;22.03;;;5.40;99.90;;;;;;5020227;28;20182;-50
2024/02/28 06:39:36;;;;;;;35.53;23.27;;;5.40;99.90;;;;;;5020307;28;20241;-50
2024/02/28 06:42:01;;;;;;;38.80;22.90;;;5.40;99.90;;;;;;5020740;28;20301;-50
2024/02/28 06:44:27;;;;;;;27.23;21.37;;;5.40;99.90;;;;;;5018813;28;20232;-47
2024/02/28 06:46:52;;;;;;;29.90;23.13;;;5.40;99.90;;;;;;5018780;28;20285;-48
2024/02/28 06:49:18;;;;;;;31.33;21.90;;;5.40;99.90;;;;;;5019580;28;20182;-51
2024/02/28 06:51:45;;;;;;;32.40;23.33;;;5.50;99.90;;;;;;5020327;28;20186;-47
2024/02/28 06:54:10;;;;;;;34.33;23.13;;;5.40;99.90;;;;;;5019709;28;20273;-50
2024/02/28 06:56:36;;;;;;;35.30;24.00;;;5.40;99.90;;;;;;5020411;28;20552;-46
2024/02/28 06:59:03;;;;;;;37.07;24.87;;;5.40;99.90;;;;;;5020086;28;20229;-46
2024/02/28 07:01:29;;;;;;;32.72;23.83;;;5.50;99.90;;;;;;5020096;28;20166;-47
2024/02/28 07:03:55;;;;;;;38.70;23.03;;;5.40;99.90;;;;;;5019904;28;20584;-47
2024/02/28 07:06:20;;;;;;;30.87;22.93;;;5.50;99.90;;;;;;5019803;28;20189;-49
2024/02/28 07:08:46;;;;;;;33.60;23.70;;;5.50;99.90;;;;;;5019766;28;20174;-46
2024/02/28 07:11:15;;;;;;;36.77;23.77;;;5.50;99.90;;;;;;5019826;28;20273;-45
2024/02/28 07:13:41;;;;;;;37.13;24.65;;;5.50;99.90;;;;;;5018730;28;20244;-46
2024/02/28 07:16:07;;;;;;;35.63;24.40;;;5.50;99.90;;;;;;5019531;28;20194;-47
2024/02/28 07:18:33;;;;;;;37.83;25.97;;;5.60;99.90;;;;;;5019869;28;20461;-46
2024/02/28 07:20:59;;;;;;;35.50;24.10;;;5.50;99.90;;;;;;5019133;28;20305;-48
2024/02/28 07:23:25;;;;;;;34.40;25.33;;;5.50;99.90;;;;;;5019697;28;20579;-46
2024/02/28 07:25:50;;;;;;;36.27;24.87;;;5.50;99.90;;;;;;5019450;28;20445;-49
2024/02/28 07:28:16;;;;;;;37.73;24.03;;;5.50;99.90;;;;;;5019362;28;20786;-50
2024/02/28 07:30:43;;;;;;;41.60;26.07;;;5.40;99.90;;;;;;5019966;28;20187;-46
2024/02/28 07:33:09;;;;;;;38.42;26.23;;;5.40;99.90;;;;;;5019364;28;20174;-49
2024/02/28 07:35:48;;;;;;;40.30;25.63;;;5.40;99.90;;;;;;5019496;28;20735;-50
2024/02/28 07:38:14;;;;;;;43.67;26.50;;;5.40;99.90;;;;;;5019577;28;20228;-53
2024/02/28 07:40:40;;;;;;;38.43;25.40;;;5.40;99.90;;;;;;5019614;28;20214;-49
2024/02/28 07:43:06;;;;;;;39.53;23.90;;;5.40;99.90;;;;;;5018202;28;20253;-52
2024/02/28 07:45:31;;;;;;;37.53;23.13;;;5.40;99.90;;;;;;5018271;28;20571;-46
2024/02/28 07:47:57;;;;;;;38.03;23.37;;;5.40;99.90;;;;;;5018408;28;20297;-48
2024/02/28 07:50:23;;;;;;;31.33;22.93;;;5.40;99.90;;;;;;5019452;28;20679;-48
2024/02/28 07:52:48;;;;;;;29.43;20.70;;;5.40;99.90;;;;;;5019502;28;20934;-50
2024/02/28 07:55:14;;;;;;;32.73;22.87;;;5.50;99.90;;;;;;5018337;28;20552;-51
2024/02/28 07:57:39;;;;;;;26.43;19.03;;;5.50;99.90;;;;;;5019854;28;20194;-53
2024/02/28 08:00:06;;;;;;;26.23;20.17;;;5.50;99.90;;;;;;5019257;28;20209;-54
2024/02/28 08:02:31;;;;;;;23.40;20.60;;;5.60;99.90;;;;;;5019595;28;20252;-53
2024/02/28 08:04:57;;;;;;;32.70;20.83;;;5.60;99.90;;;;;;5018618;28;20592;-56
2024/02/28 08:07:23;;;;;;;30.67;21.23;;;5.70;99.90;;;;;;5019393;28;20491;-49
2024/02/28 08:09:48;;;;;;;25.67;20.03;;;5.70;99.90;;;;;;5017600;28;20179;-54
2024/02/28 08:12:14;;;;;;;30.53;21.00;;;5.70;99.90;;;;;;5019133;28;20570;-53
2024/02/28 08:14:39;;;;;;;23.07;19.00;;;5.70;99.90;;;;;;5019177;28;20584;-53
2024/02/28 08:17:05;;;;;;;23.70;18.47;;;5.70;99.90;;;;;;5018655;28;20187;-55
2024/02/28 08:19:30;;;;;;;26.97;20.87;;;5.70;99.90;;;;;;5018974;28;20669;-52
2024/02/28 08:21:56;;;;;;;20.97;18.77;;;5.70;99.90;;;;;;5019225;28;20276;-53
2024/02/28 08:24:22;;;;;;;25.57;19.90;;;5.70;99.90;;;;;;5018845;28;20225;-45
2024/02/28 08:26:48;;;;;;;24.10;20.07;;;5.70;99.90;;;;;;5019216;28;20661;-50
2024/02/28 08:29:13;;;;;;;23.37;19.40;;;5.70;99.90;;;;;;5019021;28;20170;-46
2024/02/28 08:31:43;;;;;;;23.53;19.60;;;5.70;99.90;;;;;;5016508;28;21037;-51
2024/02/28 08:34:09;;;;;;;29.33;20.08;;;5.70;99.90;;;;;;5016287;28;20245;-48
2024/02/28 08:36:35;;;;;;;25.00;18.77;;;5.70;99.90;;;;;;5017243;28;20265;-48
2024/02/28 08:39:01;;;;;;;22.23;19.27;;;5.70;99.90;;;;;;5019303;28;20210;-46
2024/02/28 08:41:27;;;;;;;27.20;20.87;;;5.70;99.90;;;;;;5020129;28;21112;-50
2024/02/28 08:43:52;;;;;;;21.40;18.57;;;5.70;99.90;;;;;;5021203;28;20223;-56
2024/02/28 08:46:18;;;;;;;30.20;19.83;;;5.50;99.90;;;;;;5020610;28;20210;-51
2024/02/28 08:48:43;;;;;;;31.43;19.20;;;5.50;99.90;;;;;;5020796;28;20809;-55
2024/02/28 08:51:09;;;;;;;24.37;20.57;;;5.50;99.90;;;;;;5019964;28;20187;-51
2024/02/28 08:53:35;;;;;;;25.60;20.73;;;5.50;99.90;;;;;;5020935;28;20217;-52
2024/02/28 08:56:00;;;;;;;23.53;19.70;;;5.40;99.90;;;;;;5021152;28;20208;-55
2024/02/28 08:58:26;;;;;;;24.50;19.97;;;5.50;99.90;;;;;;5021538;28;20191;-51
2024/02/28 09:00:51;;;;;;;26.73;20.70;;;5.40;99.90;;;;;;5020178;28;20210;-55
2024/02/28 09:03:17;;;;;;;28.37;20.80;;;5.40;99.90;;;;;;5021357;28;20708;-51
2024/02/28 09:05:43;;;;;;;22.70;20.20;;;5.50;99.90;;;;;;5020457;28;20575;-53
2024/02/28 09:08:08;;;;;;;25.67;20.30;;;5.50;99.90;;;;;;5020769;28;20241;-53
2024/02/28 09:10:34;;;;;;;26.53;20.07;;;5.60;99.90;;;;;;5020293;28;20842;-54
2024/02/28 09:13:00;;;;;;;26.33;20.07;;;5.60;99.90;;;;;;5020861;28;20205;-48
2024/02/28 09:15:25;;;;;;;23.93;19.17;;;5.60;99.90;;;;;;5020095;28;20190;-53
2024/02/28 09:17:52;;;;;;;22.53;20.13;;;5.60;99.90;;;;;;5019926;28;20732;-56
2024/02/28 09:20:17;;;;;;;26.17;20.35;;;5.70;99.90;;;;;;5020836;28;20210;-54
2024/02/28 09:22:43;;;;;;;27.07;20.20;;;5.70;99.90;;;;;;5020313;28;20758;-53
2024/02/28 09:25:09;;;;;;;23.33;20.73;;;5.70;99.90;;;;;;5020602;28;20186;-52
2024/02/28 09:27:36;;;;;;;24.15;18.83;;;5.70;99.90;;;;;;5020813;28;20800;-55
2024/02/28 09:30:03;;;;;;;21.80;19.08;;;5.80;99.90;;;;;;5020541;28;20246;-55
2024/02/28 09:32:28;;;;;;;24.85;19.60;;;5.80;99.90;;;;;;5020387;28;20524;-59
2024/02/28 09:34:54;;;;;;;22.17;19.70;;;6.00;99.90;;;;;;5020347;28;20241;-55
2024/02/28 09:37:22;;;;;;;29.73;20.10;;;6.00;99.90;;;;;;5020325;28;20179;-52
2024/02/28 09:39:48;;;;;;;22.57;17.80;;;6.20;99.90;;;;;;5019343;28;20522;-53
2024/02/28 09:42:15;;;;;;;21.57;18.10;;;6.30;99.90;;;;;;5020418;28;20986;-53
2024/02/28 09:44:42;;;;;;;27.73;20.07;;;6.40;99.90;;;;;;5019305;28;20166;-50
2024/02/28 09:47:08;;;;;;;23.47;18.80;;;6.40;99.90;;;;;;5020133;28;20436;-48
2024/02/28 09:49:36;;;;;;;24.63;20.17;;;6.40;99.90;;;;;;5019788;28;20778;-50
2024/02/28 09:52:04;;;;;;;23.40;20.90;;;6.40;99.90;;;;;;5020916;28;20547;-52
2024/02/28 09:54:29;;;;;;;22.50;20.10;;;6.40;99.90;;;;;;5021369;28;20607;-49
2024/02/28 09:56:55;;;;;;;22.20;19.80;;;6.30;99.90;;;;;;5021207;28;20482;-47
2024/02/28 09:59:25;;;;;;;25.13;20.97;;;6.20;99.90;;;;;;5019771;28;20202;-47
2024/02/28 10:01:57;;;;;;;24.05;20.58;;;6.20;99.90;;;;;;5021113;28;20409;-46
2024/02/28 10:04:25;;;;;;;25.15;20.10;;;6.10;99.90;;;;;;5020635;28;20508;-47
2024/02/28 10:06:51;;;;;;;26.20;19.88;;;6.10;99.90;;;;;;5021239;28;20179;-50
2024/02/28 10:09:17;;;;;;;25.50;21.53;;;6.10;99.90;;;;;;5019354;28;20217;-46
2024/02/28 10:11:49;;;;;;;25.30;21.13;;;6.10;99.90;;;;;;5018850;28;20193;-47
2024/02/28 10:14:21;;;;;;;25.90;20.83;;;6.10;99.90;;;;;;5019673;28;20240;-45
2024/02/28 10:16:46;;;;;;;32.13;22.40;;;6.20;99.90;;;;;;5018508;28;20492;-47
2024/02/28 10:19:12;;;;;;;29.60;23.13;;;6.30;99.90;;;;;;5019678;28;20982;-45
2024/02/28 10:21:38;;;;;;;31.00;23.37;;;6.30;99.90;;;;;;5019525;28;20209;-48
2024/02/28 10:24:05;;;;;;;30.13;22.73;;;6.30;99.90;;;;;;5018689;28;20437;-48
2024/02/28 10:26:34;;;;;;;32.23;23.10;;;6.20;99.90;;;;;;5019476;28;20261;-49
2024/02/28 10:29:00;;;;;;;27.88;22.50;;;6.30;99.90;;;;;;5019419;28;20975;-49
2024/02/28 10:31:26;;;;;;;32.00;24.03;;;6.30;99.90;;;;;;5019838;28;20187;-48
2024/02/28 10:33:52;;;;;;;35.30;22.50;;;6.30;99.90;;;;;;5018818;28;20190;-48
2024/02/28 10:36:18;;;;;;;33.23;23.33;;;6.40;99.90;;;;;;5019388;28;20830;-48
2024/02/28 10:38:44;;;;;;;31.70;22.90;;;6.30;99.90;;;;;;5019162;28;20261;-47
2024/02/28 10:41:13;;;;;;;27.07;22.03;;;6.30;99.90;;;;;;5018638;28;20884;-47
2024/02/28 10:43:40;;;;;;;31.80;23.77;;;6.30;99.90;;;;;;5018623;28;20171;-53
2024/02/28 10:46:08;;;;;;;31.25;23.98;;;6.30;99.90;;;;;;5018906;28;20441;-48
2024/02/28 10:48:33;;;;;;;28.67;23.80;;;6.30;99.90;;;;;;5019354;28;20399;-49
2024/02/28 10:51:02;;;;;;;31.10;24.63;;;6.30;99.90;;;;;;5018479;28;20532;-52
2024/02/28 10:53:41;;;;;;;30.00;24.23;;;6.40;99.90;;;;;;5018608;28;20467;-47
2024/02/28 10:56:10;;;;;;;35.80;24.90;;;6.40;99.90;;;;;;5018012;28;20440;-47
2024/02/28 10:58:41;;;;;;;29.60;23.25;;;6.40;99.90;;;;;;5019327;28;20521;-52
2024/02/28 11:01:08;;;;;;;30.47;24.23;;;6.40;99.90;;;;;;5016926;28;20218;-48
2024/02/28 11:03:34;;;;;;;31.87;23.47;;;6.50;99.90;;;;;;5018810;28;20926;-54
2024/02/28 11:05:59;;;;;;;30.60;23.83;;;6.50;99.90;;;;;;5018223;28;20514;-47
2024/02/28 11:08:29;;;;;;;32.97;24.27;;;6.50;99.90;;;;;;5018279;28;20528;-46
2024/02/28 11:10:59;;;;;;;33.80;24.67;;;6.50;99.90;;;;;;5018157;28;20247;-46
2024/02/28 11:13:26;;;;;;;24.50;20.80;;;6.50;99.90;;;;;;5018614;28;20814;-47
2024/02/28 11:15:52;;;;;;;29.57;22.20;;;6.50;99.90;;;;;;5018549;28;20479;-52
2024/02/28 11:18:18;;;;;;;30.13;23.30;;;6.50;99.90;;;;;;5016909;28;20500;-45
2024/02/28 11:20:48;;;;;;;31.70;22.07;;;6.40;99.90;;;;;;5018389;28;20481;-44
2024/02/28 11:23:16;;;;;;;31.73;22.77;;;6.40;99.90;;;;;;5017907;28;20437;-50
2024/02/28 11:25:42;;;;;;;30.03;22.43;;;6.40;99.90;;;;;;5018217;28;20595;-50
2024/02/28 11:28:08;;;;;;;25.43;22.30;;;6.40;99.90;;;;;;5017883;28;20430;-49
2024/02/28 11:30:34;;;;;;;33.33;23.35;;;6.40;99.90;;;;;;5018313;28;20445;-47
2024/02/28 11:33:00;;;;;;;29.00;22.43;;;6.40;99.90;;;;;;5017506;28;20212;-46
2024/02/28 11:35:27;;;;;;;31.10;22.07;;;6.40;99.90;;;;;;5017047;28;20186;-47
2024/02/28 11:37:57;;;;;;;27.67;22.80;;;6.50;99.90;;;;;;5001648;28;20616;-45
2024/02/28 11:40:26;;;;;;;24.97;22.27;;;6.50;99.90;;;;;;5015568;28;20543;-46
2024/02/28 11:42:52;;;;;;;25.30;22.30;;;6.60;99.90;;;;;;5018127;28;20751;-45
2024/02/28 11:45:18;;;;;;;27.23;21.33;;;6.70;99.90;;;;;;5018663;28;20437;-45
2024/02/28 11:47:45;;;;;;;25.67;21.67;;;6.70;99.90;;;;;;5018850;28;21197;-56
2024/02/28 11:50:10;;;;;;;29.73;22.33;;;6.70;99.90;;;;;;5019399;28;20228;-56
2024/02/28 11:52:37;;;;;;;25.17;21.90;;;6.70;99.90;;;;;;5019934;28;20409;-52
2024/02/28 11:55:03;;;;;;;25.10;20.90;;;6.70;99.90;;;;;;5019224;28;20186;-52
2024/02/28 11:57:33;;;;;;;25.47;21.97;;;6.90;99.90;;;;;;5019486;28;20903;-56
2024/02/28 12:00:07;;;;;;;23.13;19.43;;;7.00;99.90;;;;;;5019457;28;20463;-56
2024/02/28 12:02:33;;;;;;;24.13;19.70;;;7.10;99.90;;;;;;5019124;28;20420;-54
2024/02/28 12:05:05;;;;;;;21.87;19.17;;;7.20;99.90;;;;;;5019778;28;20769;-50
2024/02/28 12:07:31;;;;;;;22.70;20.33;;;7.20;99.90;;;;;;5019291;28;20186;-53
2024/02/28 12:09:58;;;;;;;25.80;20.10;;;7.10;99.90;;;;;;5019286;28;20440;-53
2024/02/28 12:12:24;;;;;;;22.87;20.00;;;7.20;99.90;;;;;;5019811;28;20692;-56
2024/02/28 12:14:50;;;;;;;24.43;20.60;;;7.20;99.90;;;;;;5022806;28;20512;-55
2024/02/28 12:17:16;;;;;;;24.03;20.77;;;7.10;99.90;;;;;;5022886;28;20814;-50
2024/02/28 12:19:42;;;;;;;21.00;18.63;;;7.30;99.90;;;;;;5022940;28;20214;-55
2024/02/28 12:22:08;;;;;;;22.00;18.10;;;7.20;99.90;;;;;;5022680;28;20173;-53
2024/02/28 12:24:34;;;;;;;21.67;19.37;;;7.10;99.90;;;;;;5021671;28;20425;-55
2024/02/28 12:26:59;;;;;;;24.93;20.00;;;7.10;99.90;;;;;;5022558;28;20185;-55
2024/02/28 12:29:25;;;;;;;23.33;19.70;;;7.10;99.90;;;;;;5022940;28;20182;-56